Time;durP1;ratioP1;P1;durP2;ratioP2;P2;SDS_P1;SDS_P2;PMS_P1;PMS_P2;Temp;Humidity;BMP_temperature;BMP_pressure;BME280_temperature;BME280_humidity;BME280_pressure;Samples;Min_cycle;Max_cycle;Signal;HPM_P1;HPM_P2
2020/12/21 00:00:12;;;;;;;;;;;;;;;0.50;80.98;99120.50;1748702;80;24871;-86
2020/12/21 00:03:01;;;;;;;;;;;;;;;0.49;80.96;99123.55;1750170;81;20183;-86
2020/12/21 00:05:47;;;;;;;;;;;;;;;0.51;80.95;99129.93;1749257;81;26080;-86
2020/12/21 00:08:34;;;;;;;;;;;;;;;0.57;80.95;99126.81;1751296;80;24813;-86
2020/12/21 00:11:21;;;;;;;;;;;;;;;0.67;80.96;99131.34;1710264;82;20287;-86
2020/12/21 00:14:08;;;;;;;;;;;;;;;0.66;80.96;99117.61;1731299;81;24913;-86
2020/12/21 00:16:55;;;;;;;;;;;;;;;0.72;80.98;99121.36;1759149;79;22513;-86
2020/12/21 00:19:41;;;;;;;;;;;;;;;0.75;81.00;99120.47;1716120;83;25874;-86
2020/12/21 00:22:27;;;;;;;;;;;;;;;0.71;81.02;99114.97;1732703;81;24662;-86
2020/12/21 00:25:14;;;;;;;;;;;;;;;0.75;81.01;99117.89;1729688;82;20279;-86
2020/12/21 00:28:02;;;;;;;;;;;;;;;0.89;80.99;99115.88;1748049;81;25883;-86
2020/12/21 00:30:51;;;;;;;;;;;;;;;0.88;81.02;99110.75;1746237;81;22315;-86
2020/12/21 00:33:39;;;;;;;;;;;;;;;0.87;81.05;99112.94;1746995;82;26293;-86
2020/12/21 00:36:26;;;;;;;;;;;;;;;0.85;81.07;99111.67;1747373;80;24815;-86
2020/12/21 00:39:12;;;;;;;;;;;;;;;0.83;81.08;99114.70;1725944;81;20348;-86
2020/12/21 00:41:59;;;;;;;;;;;;;;;0.88;81.04;99105.59;1715599;82;24919;-85
2020/12/21 00:44:47;;;;;;;;;;;;;;;0.94;81.04;99111.48;1716761;82;22241;-85
2020/12/21 00:47:34;;;;;;;;;;;;;;;0.99;81.03;99117.37;1697065;82;25908;-86
2020/12/21 00:50:20;;;;;;;;;;;;;;;1.04;81.04;99123.28;1721375;82;24690;-85
2020/12/21 00:53:07;;;;;;;;;;;;;;;1.05;81.06;99126.72;1717880;82;20264;-86
2020/12/21 00:55:53;;;;;;;;;;;;;;;1.09;81.07;99120.64;1716801;82;24846;-86
2020/12/21 00:58:44;;;;;;;;;;;;;;;1.10;81.08;99127.03;1720872;82;22006;-86
2020/12/21 01:01:31;;;;;;;;;;;;;;;1.15;81.08;99126.92;1713980;82;26138;-86
2020/12/21 01:04:19;;;;;;;;;;;;;;;1.11;81.10;99131.75;1704083;82;24631;-86
2020/12/21 01:07:07;;;;;;;;;;;;;;;1.14;81.08;99123.97;1708348;82;20307;-86
2020/12/21 01:09:54;;;;;;;;;;;;;;;1.09;81.09;99122.75;1680954;82;25120;-86
2020/12/21 01:12:42;;;;;;;;;;;;;;;1.04;81.09;99114.70;1683551;82;22696;-86
2020/12/21 01:15:29;;;;;;;;;;;;;;;1.10;81.07;99116.72;1708473;82;26214;-86
2020/12/21 01:18:17;;;;;;;;;;;;;;;1.17;81.04;99113.58;1704322;82;25499;-86
2020/12/21 01:21:04;;;;;;;;;;;;;;;1.25;81.06;99116.86;1709772;82;20435;-86
2020/12/21 01:23:51;;;;;;;;;;;;;;;1.26;81.05;99118.53;1710376;82;25750;-86
2020/12/21 01:26:36;;;;;;;;;;;;;;;1.24;81.09;99112.58;1707251;82;22949;-86
2020/12/21 01:29:24;;;;;;;;;;;;;;;1.19;81.08;99106.67;1708415;82;26846;-86
2020/12/21 01:32:11;;;;;;;;;;;;;;;1.13;81.10;99105.52;1691772;82;24729;-87
2020/12/21 01:34:58;;;;;;;;;;;;;;;1.15;81.07;99105.88;1680972;82;20541;-86
2020/12/21 01:37:44;;;;;;;;;;;;;;;1.15;81.06;99107.59;1673954;82;25078;-86
2020/12/21 01:40:31;;;;;;;;;;;;;;;1.16;81.05;99101.13;1644064;84;22653;-86
2020/12/21 01:43:17;;;;;;;;;;;;;;;1.25;81.04;99105.26;1701807;82;26238;-86
2020/12/21 01:46:03;;;;;;;;;;;;;;;1.29;81.04;99118.48;1702008;82;24703;-86
2020/12/21 01:48:50;;;;;;;;;;;;;;;1.32;81.04;99117.11;1700887;83;20529;-86
2020/12/21 01:51:37;;;;;;;;;;;;;;;1.26;81.07;99118.53;1699596;84;25105;-86
2020/12/21 01:54:23;;;;;;;;;;;;;;;1.20;81.08;99118.22;1701901;84;23054;-86
2020/12/21 01:57:10;;;;;;;;;;;;;;;1.14;81.08;99122.69;1672082;84;25923;-86
2020/12/21 01:59:56;;;;;;;;;;;;;;;1.12;81.04;99121.85;1672266;84;24733;-86
2020/12/21 02:02:43;;;;;;;;;;;;;;;1.11;81.04;99118.42;1701197;84;20310;-86
2020/12/21 02:05:30;;;;;;;;;;;;;;;1.10;81.03;99119.30;1701310;84;24884;-87
2020/12/21 02:08:07;;;;;;;;;;;;;;;1.22;81.01;99122.91;1700160;84;22210;-87
2020/12/21 02:10:56;;;;;;;;;;;;;;;1.36;80.99;99123.07;1667090;84;26163;-87
2020/12/21 02:13:45;;;;;;;;;;;;;;;1.42;81.00;99126.80;1671494;84;24671;-88
2020/12/21 02:16:32;;;;;;;;;;;;;;;1.41;81.04;99130.27;1701293;82;20577;-88
2020/12/21 02:19:19;;;;;;;;;;;;;;;1.30;81.07;99125.78;1700689;84;25096;-87
2020/12/21 02:22:05;;;;;;;;;;;;;;;1.17;81.09;99128.61;1699011;84;22057;-88
2020/12/21 02:24:51;;;;;;;;;;;;;;;1.24;81.06;99125.47;1698252;84;26238;-88
2020/12/21 02:27:41;;;;;;;;;;;;;;;1.38;81.02;99134.17;1690479;84;24826;-88
2020/12/21 02:30:28;;;;;;;;;;;;;;;1.60;81.02;99128.95;1697241;84;20353;-87
2020/12/21 02:33:14;;;;;;;;;;;;;;;1.67;81.04;99124.07;1694659;84;24470;-86
2020/12/21 02:36:01;;;;;;;;;;;;;;;1.57;81.08;99127.30;1696624;82;23064;-86
2020/12/21 02:38:48;;;;;;;;;;;;;;;1.59;81.10;99126.81;1696427;81;26191;-87
2020/12/21 02:41:35;;;;;;;;;;;;;;;1.56;81.12;99133.34;1714574;82;24645;-87
2020/12/21 02:44:22;;;;;;;;;;;;;;;1.63;81.11;99130.19;1709016;81;20500;-87
2020/12/21 02:46:56;;;;;;;;;;;;;;;1.68;81.09;99136.09;1716851;82;25837;-87
2020/12/21 02:49:43;;;;;;;;;;;;;;;1.88;81.09;99127.43;1672983;82;21979;-87
2020/12/21 02:52:30;;;;;;;;;;;;;;;1.95;81.08;99126.41;1670705;82;26250;-86
2020/12/21 02:55:17;;;;;;;;;;;;;;;2.02;81.10;99127.08;1705432;82;24809;-87
2020/12/21 02:58:04;;;;;;;;;;;;;;;2.02;81.10;99125.79;1716688;82;20270;-87
2020/12/21 03:00:51;;;;;;;;;;;;;;;2.02;81.10;99114.17;1708351;81;25744;-87
2020/12/21 03:03:38;;;;;;;;;;;;;;;2.00;81.12;99115.53;1676573;83;22183;-87
2020/12/21 03:06:25;;;;;;;;;;;;;;;1.92;81.12;99114.85;1706618;82;26136;-87
2020/12/21 03:09:11;;;;;;;;;;;;;;;1.99;81.09;99114.27;1707851;82;24410;-87
2020/12/21 03:11:59;;;;;;;;;;;;;;;2.04;81.09;99122.30;1724287;82;20289;-86
2020/12/21 03:14:46;;;;;;;;;;;;;;;2.06;81.09;99120.55;1696683;82;25165;-87
2020/12/21 03:17:32;;;;;;;;;;;;;;;1.97;81.10;99125.05;1694215;82;24153;-87
2020/12/21 03:20:21;;;;;;;;;;;;;;;1.99;81.10;99124.59;1697838;82;27075;-87
2020/12/21 03:23:07;;;;;;;;;;;;;;;2.09;81.06;99124.77;1708370;81;24645;-87
2020/12/21 03:25:54;;;;;;;;;;;;;;;2.18;81.06;99125.00;1709967;81;20579;-87
2020/12/21 03:28:40;;;;;;;;;;;;;;;2.24;81.03;99123.52;1710057;81;24980;-87
2020/12/21 03:31:28;;;;;;;;;;;;;;;2.33;81.02;99116.41;1708941;82;21275;-87
2020/12/21 03:34:16;;;;;;;;;;;;;;;2.28;81.04;99115.69;1727182;81;26182;-87
2020/12/21 03:37:04;;;;;;;;;;;;;;;2.15;81.06;99126.34;1716040;81;24711;-87
2020/12/21 03:39:51;;;;;;;;;;;;;;;2.14;81.06;99119.05;1731880;80;20288;-87
2020/12/21 03:42:41;;;;;;;;;;;;;;;2.18;81.04;99125.00;1748919;81;25011;-87
2020/12/21 03:45:27;;;;;;;;;;;;;;;2.24;81.03;99124.81;1748796;80;22264;-87
2020/12/21 03:48:14;;;;;;;;;;;;;;;2.34;81.03;99131.03;1740475;79;26100;-87
2020/12/21 03:51:01;;;;;;;;;;;;;;;2.44;81.02;99133.77;1732282;81;24589;-87
2020/12/21 03:53:52;;;;;;;;;;;;;;;2.48;81.03;99131.95;1730823;82;20498;-86
2020/12/21 03:56:39;;;;;;;;;;;;;;;2.57;81.02;99135.56;1732159;82;25814;-87
2020/12/21 03:59:25;;;;;;;;;;;;;;;2.65;81.00;99136.23;1727752;82;22154;-87
2020/12/21 04:02:11;;;;;;;;;;;;;;;2.67;81.02;99135.75;1731841;82;26133;-87
2020/12/21 04:04:58;;;;;;;;;;;;;;;2.64;81.03;99134.53;1731545;81;25648;-86
2020/12/21 04:07:44;;;;;;;;;;;;;;;2.63;81.05;99138.44;1732302;82;20572;-87
2020/12/21 04:10:32;;;;;;;;;;;;;;;2.69;81.02;99136.54;1703159;82;25537;-86
2020/12/21 04:13:19;;;;;;;;;;;;;;;2.70;81.02;99136.09;1718673;82;22296;-86
2020/12/21 04:16:08;;;;;;;;;;;;;;;2.69;81.01;99137.83;1718503;81;26122;-86
2020/12/21 04:18:54;;;;;;;;;;;;;;;2.73;80.98;99147.19;1738006;82;24865;-87
2020/12/21 04:21:41;;;;;;;;;;;;;;;2.76;80.98;99144.98;1738167;82;20417;-87
2020/12/21 04:24:28;;;;;;;;;;;;;;;2.75;80.99;99142.84;1717688;82;25359;-87
2020/12/21 04:27:14;;;;;;;;;;;;;;;2.68;80.97;99149.05;1739002;81;22110;-87
2020/12/21 04:30:01;;;;;;;;;;;;;;;2.73;80.97;99145.05;1737153;82;26169;-88
2020/12/21 04:32:48;;;;;;;;;;;;;;;2.78;80.95;99138.86;1738127;81;24584;-87
2020/12/21 04:35:34;;;;;;;;;;;;;;;2.84;80.95;99132.68;1738833;81;20401;-87
2020/12/21 04:38:22;;;;;;;;;;;;;;;2.92;80.92;99136.77;1717030;82;25107;-87
2020/12/21 04:41:08;;;;;;;;;;;;;;;2.88;80.93;99130.00;1726193;81;21903;-87
2020/12/21 04:43:55;;;;;;;;;;;;;;;2.99;80.97;99131.43;1759059;81;26086;-87
2020/12/21 04:46:41;;;;;;;;;;;;;;;3.08;80.96;99133.74;1756540;81;24613;-87
2020/12/21 04:49:28;;;;;;;;;;;;;;;3.19;80.96;99135.13;1754661;81;20369;-87
2020/12/21 04:52:15;;;;;;;;;;;;;;;3.26;80.97;99134.52;1756543;81;24735;-87
2020/12/21 04:55:05;;;;;;;;;;;;;;;3.31;80.98;99133.49;1727993;81;22921;-86
2020/12/21 04:57:52;;;;;;;;;;;;;;;3.40;81.00;99133.65;1755677;80;26233;-86
2020/12/21 05:00:38;;;;;;;;;;;;;;;3.29;81.04;99127.50;1756685;81;24561;-86
2020/12/21 05:03:25;;;;;;;;;;;;;;;3.32;81.05;99137.78;1729197;80;20357;-86
2020/12/21 05:06:11;;;;;;;;;;;;;;;3.33;81.05;99137.30;1743678;81;24977;-86
2020/12/21 05:09:00;;;;;;;;;;;;;;;3.38;81.05;99136.27;1738887;82;22200;-86
2020/12/21 05:11:47;;;;;;;;;;;;;;;3.41;81.05;99139.67;1726917;82;26092;-87
2020/12/21 05:14:34;;;;;;;;;;;;;;;3.24;81.05;99137.14;1731447;82;25535;-87
2020/12/21 05:17:24;;;;;;;;;;;;;;;3.15;81.07;99139.16;1736050;82;20262;-87
2020/12/21 05:20:10;;;;;;;;;;;;;;;3.18;81.05;99145.52;1747802;82;25767;-87
2020/12/21 05:22:56;;;;;;;;;;;;;;;3.23;81.04;99144.94;1738377;81;22157;-87
2020/12/21 05:25:43;;;;;;;;;;;;;;;3.27;81.03;99146.09;1755670;81;26178;-87
2020/12/21 05:28:30;;;;;;;;;;;;;;;3.31;81.03;99145.13;1753776;80;24578;-87
2020/12/21 05:31:16;;;;;;;;;;;;;;;3.42;81.03;99152.57;1730500;82;20238;-86
2020/12/21 05:34:02;;;;;;;;;;;;;;;3.44;81.02;99150.77;1731216;82;24884;-86
2020/12/21 05:36:50;;;;;;;;;;;;;;;3.52;81.03;99154.44;1750599;81;22233;-87
2020/12/21 05:39:36;;;;;;;;;;;;;;;3.54;81.03;99153.51;1740280;81;26167;-86
2020/12/21 05:42:24;;;;;;;;;;;;;;;3.59;81.06;99150.34;1746973;82;24563;-87
2020/12/21 05:45:11;;;;;;;;;;;;;;;3.63;81.06;99148.05;1743123;81;20255;-87
2020/12/21 05:47:58;;;;;;;;;;;;;;;3.66;81.06;99151.81;1716119;82;24393;-87
2020/12/21 05:50:44;;;;;;;;;;;;;;;3.67;81.08;99150.93;1737827;81;22211;-87
2020/12/21 05:53:31;;;;;;;;;;;;;;;3.59;81.08;99151.62;1738225;82;26103;-87
2020/12/21 05:56:19;;;;;;;;;;;;;;;3.44;81.10;99152.53;1716277;82;24540;-87
2020/12/21 05:59:06;;;;;;;;;;;;;;;3.36;81.08;99153.60;1714183;82;20278;-87
2020/12/21 06:01:53;;;;;;;;;;;;;;;3.45;81.05;99155.50;1738941;81;24872;-87
2020/12/21 06:04:39;;;;;;;;;;;;;;;3.45;81.03;99146.00;1737877;81;23043;-87
2020/12/21 06:07:26;;;;;;;;;;;;;;;3.48;81.01;99151.10;1739309;80;27004;-87
2020/12/21 06:10:12;;;;;;;;;;;;;;;3.56;81.01;99159.47;1736982;82;24567;-88
2020/12/21 06:12:59;;;;;;;;;;;;;;;3.59;81.02;99155.52;1738828;81;20915;-88
2020/12/21 06:15:46;;;;;;;;;;;;;;;3.63;81.01;99159.69;1738177;82;24878;-88
2020/12/21 06:18:33;;;;;;;;;;;;;;;3.59;81.03;99156.80;1715739;82;21923;-87
2020/12/21 06:21:19;;;;;;;;;;;;;;;3.56;81.01;99162.05;1739394;82;27144;-87
2020/12/21 06:24:06;;;;;;;;;;;;;;;3.62;81.02;99171.38;1737354;82;24794;-87
2020/12/21 06:26:52;;;;;;;;;;;;;;;3.61;81.02;99171.82;1737289;81;20404;-87
2020/12/21 06:29:39;;;;;;;;;;;;;;;3.56;81.02;99169.81;1740634;80;24881;-87
2020/12/21 06:32:25;;;;;;;;;;;;;;;3.58;80.99;99171.08;1719251;82;22008;-87
2020/12/21 06:35:13;;;;;;;;;;;;;;;3.54;80.99;99169.48;1739005;82;27047;-87
2020/12/21 06:38:01;;;;;;;;;;;;;;;3.53;81.00;99170.37;1738467;82;24777;-88
2020/12/21 06:40:48;;;;;;;;;;;;;;;3.55;80.97;99168.56;1737679;81;20471;-87
2020/12/21 06:43:35;;;;;;;;;;;;;;;3.58;80.97;99172.37;1737447;80;25097;-87
2020/12/21 06:46:22;;;;;;;;;;;;;;;3.55;80.98;99172.44;1739069;81;23764;-87
2020/12/21 06:49:08;;;;;;;;;;;;;;;3.46;81.00;99175.31;1739243;82;26119;-88
2020/12/21 06:51:55;;;;;;;;;;;;;;;3.49;80.99;99180.41;1716655;82;24040;-87
2020/12/21 06:54:42;;;;;;;;;;;;;;;3.55;80.99;99176.32;1733753;82;20259;-87
2020/12/21 06:57:31;;;;;;;;;;;;;;;3.52;80.97;99175.98;1739008;82;25120;-87
2020/12/21 07:00:18;;;;;;;;;;;;;;;3.53;80.98;99186.74;1741911;82;22713;-87
2020/12/21 07:03:10;;;;;;;;;;;;;;;3.55;81.00;99190.55;1716135;82;26986;-87
2020/12/21 07:05:57;;;;;;;;;;;;;;;3.58;81.02;99190.04;1717603;82;24370;-86
2020/12/21 07:08:44;;;;;;;;;;;;;;;3.60;81.00;99188.23;1739263;82;20211;-87
2020/12/21 07:11:31;;;;;;;;;;;;;;;3.68;80.97;99188.02;1716798;82;25169;-89
2020/12/21 07:14:19;;;;;;;;;;;;;;;3.64;81.01;99184.69;1716322;82;22986;-87
2020/12/21 07:17:06;;;;;;;;;;;;;;;3.67;81.02;99192.34;1739344;81;26189;-87
2020/12/21 07:19:55;;;;;;;;;;;;;;;3.67;81.02;99187.61;1717652;82;24351;-87
2020/12/21 07:22:44;;;;;;;;;;;;;;;3.74;81.01;99191.27;1737332;82;20163;-87
2020/12/21 07:25:31;;;;;;;;;;;;;;;3.73;81.04;99188.28;1739208;81;25075;-87
2020/12/21 07:28:18;;;;;;;;;;;;;;;3.78;81.02;99185.10;1736662;82;22304;-87
2020/12/21 07:31:05;;;;;;;;;;;;;;;3.82;81.02;99188.44;1716282;82;26300;-87
2020/12/21 07:33:52;;;;;;;;;;;;;;;3.82;81.03;99192.31;1737754;82;24757;-89
2020/12/21 07:36:41;;;;;;;;;;;;;;;3.71;81.05;99187.47;1738989;82;20689;-88
2020/12/21 07:39:27;;;;;;;;;;;;;;;3.69;81.07;99185.84;1748188;80;24968;-88
2020/12/21 07:42:15;;;;;;;;;;;;;;;3.71;81.05;99187.47;1717946;82;22167;-88
2020/12/21 07:45:02;;;;;;;;;;;;;;;3.72;81.05;99187.88;1740943;82;26122;-87
2020/12/21 07:47:50;;;;;;;;;;;;;;;3.73;81.04;99186.98;1740630;82;21548;-87
2020/12/21 07:50:51;;;;;;;;;;;;;;;3.71;81.05;99190.05;1732535;82;20600;-87
2020/12/21 07:53:41;;;;;;;;;;;;;;;3.76;81.05;99186.88;1725367;82;25002;-87
2020/12/21 07:56:27;;;;;;;;;;;;;;;3.83;81.06;99189.28;1708864;82;21871;-87
2020/12/21 07:59:18;;;;;;;;;;;;;;;3.85;81.08;99189.65;1730267;81;25955;-87
2020/12/21 08:02:04;;;;;;;;;;;;;;;3.84;81.10;99186.66;1729181;82;24627;-87
2020/12/21 08:04:51;;;;;;;;;;;;;;;3.78;81.13;99187.69;1729947;82;20530;-87
2020/12/21 08:07:38;;;;;;;;;;;;;;;3.85;81.11;99188.36;1720498;82;24810;-87
2020/12/21 08:10:24;;;;;;;;;;;;;;;3.95;81.08;99191.50;1732932;82;21789;-88
2020/12/21 08:13:11;;;;;;;;;;;;;;;4.01;81.08;99183.10;1729020;82;26140;-87
2020/12/21 08:16:00;;;;;;;;;;;;;;;4.05;81.08;99182.55;1728574;81;24595;-87
2020/12/21 08:18:46;;;;;;;;;;;;;;;4.07;81.09;99178.17;1713882;82;20361;-87
2020/12/21 08:21:37;;;;;;;;;;;;;;;4.14;81.10;99181.83;1731933;82;25863;-87
2020/12/21 08:24:24;;;;;;;;;;;;;;;4.15;81.12;99178.77;1728534;82;22379;-87
2020/12/21 08:27:11;;;;;;;;;;;;;;;4.16;81.11;99185.64;1712711;82;26946;-87
2020/12/21 08:29:58;;;;;;;;;;;;;;;4.16;81.09;99182.61;1730887;82;24595;-87
2020/12/21 08:32:46;;;;;;;;;;;;;;;4.20;81.07;99179.45;1730985;82;20511;-88
2020/12/21 08:35:32;;;;;;;;;;;;;;;4.26;81.06;99183.59;1729914;82;24950;-87
2020/12/21 08:38:20;;;;;;;;;;;;;;;4.29;81.03;99180.48;1728870;81;21864;-87
2020/12/21 08:41:07;;;;;;;;;;;;;;;4.31;81.02;99183.84;1760754;79;26988;-87
2020/12/21 08:43:54;;;;;;;;;;;;;;;4.40;81.01;99186.60;1732959;81;24692;-87
2020/12/21 08:46:41;;;;;;;;;;;;;;;4.42;81.00;99187.41;1728345;82;20377;-86
2020/12/21 08:49:28;;;;;;;;;;;;;;;4.46;80.98;99187.70;1704234;82;25437;-87
2020/12/21 08:52:14;;;;;;;;;;;;;;;4.52;80.95;99182.31;1731249;82;22135;-88
2020/12/21 08:55:02;;;;;;;;;;;;;;;4.58;80.96;99182.11;1697221;83;25980;-86
2020/12/21 08:57:49;;;;;;;;;;;;;;;4.57;80.93;99184.30;1717534;80;24637;-87
2020/12/21 09:00:36;;;;;;;;;;;;;;;4.57;80.89;99178.67;1712619;83;20159;-87
2020/12/21 09:03:23;;;;;;;;;;;;;;;4.61;80.87;99178.95;1687833;83;24681;-86
2020/12/21 09:06:10;;;;;;;;;;;;;;;4.65;80.83;99174.50;1734354;82;22075;-86
2020/12/21 09:08:59;;;;;;;;;;;;;;;4.63;80.82;99175.88;1745026;80;26123;-86
2020/12/21 09:11:46;;;;;;;;;;;;;;;4.70;80.78;99171.75;1707189;82;24614;-86
2020/12/21 09:14:33;;;;;;;;;;;;;;;4.75;80.74;99175.03;1710044;83;20677;-86
2020/12/21 09:17:19;;;;;;;;;;;;;;;4.78;80.72;99172.34;1688815;83;25787;-86
2020/12/21 09:20:06;;;;;;;;;;;;;;;4.77;80.68;99164.17;1721578;82;22150;-87
2020/12/21 09:22:53;;;;;;;;;;;;;;;4.77;80.63;99170.64;1746095;81;25301;-86
2020/12/21 09:25:40;;;;;;;;;;;;;;;4.74;80.61;99162.98;1724583;81;24353;-87
2020/12/21 09:28:28;;;;;;;;;;;;;;;4.72;80.57;99149.22;1731695;83;20486;-86
2020/12/21 09:31:14;;;;;;;;;;;;;;;4.72;80.54;99142.30;1749447;80;25157;-86
2020/12/21 09:34:04;;;;;;;;;;;;;;;4.70;80.50;99148.41;1707407;83;22046;-86
2020/12/21 09:36:51;;;;;;;;;;;;;;;4.78;80.45;99154.20;1707331;82;26960;-86
2020/12/21 09:39:38;;;;;;;;;;;;;;;4.82;80.44;99144.95;1708068;82;24587;-85
2020/12/21 09:42:25;;;;;;;;;;;;;;;4.84;80.39;99135.83;1706957;82;20268;-86
2020/12/21 09:45:14;;;;;;;;;;;;;;;4.85;80.39;99139.68;1737393;82;25177;-86
2020/12/21 09:48:00;;;;;;;;;;;;;;;4.90;80.36;99133.03;1736564;80;22223;-86
2020/12/21 09:50:47;;;;;;;;;;;;;;;4.89;80.31;99138.66;1707582;83;26281;-86
2020/12/21 09:53:34;;;;;;;;;;;;;;;4.90;80.26;99126.09;1714055;83;24266;-86
2020/12/21 09:56:21;;;;;;;;;;;;;;;4.92;80.23;99120.38;1742420;82;20238;-86
2020/12/21 09:59:08;;;;;;;;;;;;;;;4.92;80.19;99115.20;1707885;82;24885;-86
2020/12/21 10:01:42;;;;;;;;;;;;;;;4.96;80.13;99114.17;1712083;82;22520;-86
2020/12/21 10:04:29;;;;;;;;;;;;;;;4.96;80.10;99102.98;1738631;82;25959;-86
2020/12/21 10:07:16;;;;;;;;;;;;;;;4.94;80.03;99099.14;1741143;80;24633;-86
2020/12/21 10:10:03;;;;;;;;;;;;;;;4.93;79.99;99096.14;1740117;82;20274;-87
2020/12/21 10:12:50;;;;;;;;;;;;;;;4.96;79.94;99103.80;1749051;80;24947;-89
2020/12/21 10:15:38;;;;;;;;;;;;;;;4.98;79.89;99101.16;1737155;81;22043;-87
2020/12/21 10:18:25;;;;;;;;;;;;;;;5.01;79.84;99099.32;1718942;82;25970;-87
2020/12/21 10:21:12;;;;;;;;;;;;;;;5.05;79.76;99088.37;1739354;81;24696;-87
2020/12/21 10:24:00;;;;;;;;;;;;;;;5.09;79.69;99091.69;1735018;81;20308;-86
2020/12/21 10:26:48;;;;;;;;;;;;;;;5.12;79.65;99091.14;1738536;80;24923;-86
2020/12/21 10:29:35;;;;;;;;;;;;;;;5.17;79.56;99092.26;1738847;81;22360;-86
2020/12/21 10:32:22;;;;;;;;;;;;;;;5.18;79.52;99090.91;1739179;80;27142;-86
2020/12/21 10:35:10;;;;;;;;;;;;;;;5.18;79.45;99090.91;1738918;81;24626;-86
2020/12/21 10:37:57;;;;;;;;;;;;;;;5.23;79.39;99094.18;1740819;82;20349;-87
2020/12/21 10:40:44;;;;;;;;;;;;;;;5.28;79.29;99087.06;1739853;82;24875;-87
2020/12/21 10:43:33;;;;;;;;;;;;;;;5.33;79.23;99094.22;1753857;80;22159;-86
2020/12/21 10:46:22;;;;;;;;;;;;;;;5.39;79.16;99097.03;1758141;81;26158;-86
2020/12/21 10:49:08;;;;;;;;;;;;;;;5.46;79.04;99094.13;1758992;81;24604;-86
2020/12/21 10:51:56;;;;;;;;;;;;;;;5.55;78.96;99091.64;1728317;81;20298;-86
2020/12/21 10:57:36;;;;;;;;;;;;;;;5.72;78.83;99092.28;1695355;81;22432;-87
2020/12/21 11:00:25;;;;;;;;;;;;;;;5.79;78.73;99085.91;1729494;81;27018;-86
2020/12/21 11:03:15;;;;;;;;;;;;;;;5.85;78.67;99088.27;1729730;81;24645;-87
2020/12/21 11:06:01;;;;;;;;;;;;;;;5.88;78.59;99077.80;1698206;83;20278;-86
2020/12/21 11:08:50;;;;;;;;;;;;;;;5.91;78.49;99084.16;1750105;80;25840;-86
2020/12/21 11:11:38;;;;;;;;;;;;;;;5.96;78.42;99091.75;1765077;79;22817;-87
2020/12/21 11:14:25;;;;;;;;;;;;;;;6.01;78.34;99091.96;1712602;81;25705;-87
2020/12/21 11:17:12;;;;;;;;;;;;;;;6.06;78.26;99092.61;1760870;79;24430;-86
2020/12/21 11:19:59;;;;;;;;;;;;;;;6.05;78.20;99094.84;1746748;80;20172;-86
2020/12/21 11:22:46;;;;;;;;;;;;;;;6.09;78.14;99096.41;1742676;81;25012;-86
2020/12/21 11:25:36;;;;;;;;;;;;;;;6.12;78.05;99092.81;1718824;82;21836;-86
2020/12/21 11:28:22;;;;;;;;;;;;;;;6.19;77.98;99090.36;1746482;80;26190;-86
2020/12/21 11:31:08;;;;;;;;;;;;;;;6.23;77.91;99083.67;1741466;81;24570;-87
2020/12/21 11:33:55;;;;;;;;;;;;;;;6.30;77.83;99083.81;1739377;80;20266;-87
2020/12/21 11:36:42;;;;;;;;;;;;;;;6.34;77.76;99086.27;1783726;78;24749;-88
2020/12/21 11:39:29;;;;;;;;;;;;;;;6.40;77.69;99090.76;1705012;83;22204;-86
2020/12/21 11:42:17;;;;;;;;;;;;;;;6.40;77.61;99087.31;1749704;81;26357;-86
2020/12/21 11:45:04;;;;;;;;;;;;;;;6.43;77.54;99093.25;1738314;81;24642;-86
2020/12/21 11:47:50;;;;;;;;;;;;;;;6.40;77.48;99094.66;1700730;83;20289;-86
2020/12/21 11:50:37;;;;;;;;;;;;;;;6.40;77.39;99089.91;1726722;81;25786;-87
2020/12/21 11:53:24;;;;;;;;;;;;;;;6.36;77.31;99086.61;1698401;83;23099;-87
2020/12/21 11:56:13;;;;;;;;;;;;;;;6.39;77.24;99092.11;1711958;79;26014;-87
2020/12/21 11:59:04;;;;;;;;;;;;;;;6.33;77.15;99100.20;1786955;79;24796;-87
2020/12/21 12:01:52;;;;;;;;;;;;;;;6.28;77.04;99096.02;1751781;80;20289;-87
2020/12/21 12:04:40;;;;;;;;;;;;;;;6.22;76.95;99104.52;1756721;79;23777;-86
2020/12/21 12:07:26;;;;;;;;;;;;;;;6.21;76.86;99101.55;1778580;79;22070;-86
2020/12/21 12:10:14;;;;;;;;;;;;;;;6.14;76.80;99107.45;1779034;79;25982;-86
2020/12/21 12:13:01;;;;;;;;;;;;;;;6.04;76.74;99110.04;1785563;79;24788;-87
2020/12/21 12:15:48;;;;;;;;;;;;;;;6.04;76.65;99107.89;1744801;80;20358;-86
2020/12/21 12:18:37;;;;;;;;;;;;;;;6.06;76.58;99105.61;1802583;79;24887;-87
2020/12/21 12:21:25;;;;;;;;;;;;;;;6.05;76.52;99109.14;1790296;79;23066;-87
2020/12/21 12:24:12;;;;;;;;;;;;;;;6.08;76.48;99107.70;1780964;79;26187;-87
2020/12/21 12:26:59;;;;;;;;;;;;;;;6.14;76.45;99107.45;1780509;79;24821;-87
2020/12/21 12:29:46;;;;;;;;;;;;;;;6.15;76.41;99100.05;1792957;79;20482;-87
2020/12/21 12:32:33;;;;;;;;;;;;;;;6.16;76.37;99110.84;1790452;79;24917;-87
2020/12/21 12:35:20;;;;;;;;;;;;;;;6.11;76.29;99108.86;1765929;80;21370;-87
2020/12/21 12:38:06;;;;;;;;;;;;;;;6.11;76.26;99108.05;1749966;80;26163;-87
2020/12/21 12:40:56;;;;;;;;;;;;;;;6.06;76.20;99110.80;1756662;80;24329;-87
2020/12/21 12:43:42;;;;;;;;;;;;;;;6.06;76.12;99113.41;1806787;78;20643;-87
2020/12/21 12:46:33;;;;;;;;;;;;;;;6.08;76.09;99110.75;1758264;79;23905;-86
2020/12/21 12:49:21;;;;;;;;;;;;;;;6.06;76.02;99114.70;1763969;80;22266;-87
2020/12/21 12:52:09;;;;;;;;;;;;;;;5.95;75.97;99115.59;1754336;80;26187;-87
2020/12/21 12:54:56;;;;;;;;;;;;;;;5.85;75.89;99120.28;1758783;80;24790;-85
2020/12/21 12:57:43;;;;;;;;;;;;;;;5.81;75.80;99119.17;1755596;80;20265;-86
2020/12/21 13:00:30;;;;;;;;;;;;;;;5.77;75.74;99115.86;1752747;80;24918;-86
2020/12/21 13:03:18;;;;;;;;;;;;;;;5.74;75.68;99112.06;1748768;80;22161;-87
2020/12/21 13:06:10;;;;;;;;;;;;;;;5.70;75.60;99108.36;1746936;80;26977;-88
2020/12/21 13:11:51;;;;;;;;;;;;;;;5.63;75.50;99105.15;1780224;79;20269;-86
2020/12/21 13:14:38;;;;;;;;;;;;;;;5.60;75.45;99112.22;1774223;80;24649;-88
2020/12/21 13:17:25;;;;;;;;;;;;;;;5.56;75.38;99115.85;1782962;79;22333;-87
2020/12/21 13:20:12;;;;;;;;;;;;;;;5.49;75.32;99111.34;1778658;80;26969;-87
2020/12/21 13:22:58;;;;;;;;;;;;;;;5.45;75.26;99111.89;1778546;80;24578;-86
2020/12/21 13:25:46;;;;;;;;;;;;;;;5.32;75.20;99088.63;1777186;80;20435;-87
2020/12/21 13:28:33;;;;;;;;;;;;;;;5.41;75.17;99116.81;1769929;79;24922;-87
2020/12/21 13:31:19;;;;;;;;;;;;;;;5.41;75.13;99105.58;1780554;79;23051;-87
2020/12/21 13:34:06;;;;;;;;;;;;;;;5.42;75.11;99108.13;1780533;79;26173;-87
2020/12/21 13:36:54;;;;;;;;;;;;;;;5.40;75.05;99108.63;1776564;80;24617;-86
2020/12/21 13:39:47;;;;;;;;;;;;;;;5.42;75.05;99111.17;1791631;79;20263;-87
2020/12/21 13:42:34;;;;;;;;;;;;;;;5.42;75.01;99108.58;1780287;79;25106;-87
2020/12/21 13:45:20;;;;;;;;;;;;;;;5.48;75.00;99105.30;1783648;79;22099;-88
2020/12/21 13:48:06;;;;;;;;;;;;;;;5.56;75.00;99104.17;1789819;79;27117;-87
2020/12/21 13:50:55;;;;;;;;;;;;;;;5.61;75.00;99106.13;1783879;79;25141;-86
2020/12/21 13:53:42;;;;;;;;;;;;;;;5.71;75.00;99103.56;1782323;80;20261;-87
2020/12/21 13:56:29;;;;;;;;;;;;;;;5.81;75.02;99101.84;1777273;80;24913;-86
2020/12/21 13:59:19;;;;;;;;;;;;;;;5.86;75.04;99096.45;1775455;80;23202;-88
2020/12/21 14:02:06;;;;;;;;;;;;;;;5.93;75.03;99099.69;1771120;80;26098;-87
2020/12/21 14:04:53;;;;;;;;;;;;;;;5.98;75.05;99101.64;1773651;80;24685;-87
2020/12/21 14:07:40;;;;;;;;;;;;;;;6.01;75.04;99098.91;1775865;80;20288;-86
2020/12/21 14:10:30;;;;;;;;;;;;;;;5.99;75.03;99102.04;1755647;81;24664;-89
2020/12/21 14:13:17;;;;;;;;;;;;;;;5.98;75.00;99096.00;1774046;80;23128;-87
2020/12/21 14:16:03;;;;;;;;;;;;;;;5.98;75.00;99094.70;1777677;79;26165;-87
2020/12/21 14:18:50;;;;;;;;;;;;;;;6.05;74.98;99096.14;1775665;80;24758;-87
2020/12/21 14:21:37;;;;;;;;;;;;;;;6.07;74.97;99089.11;1783490;79;20537;-87
2020/12/21 14:24:25;;;;;;;;;;;;;;;6.06;74.93;99086.13;1770695;80;24983;-87
2020/12/21 14:27:11;;;;;;;;;;;;;;;6.09;74.94;99083.86;1775561;79;22242;-87
2020/12/21 14:29:58;;;;;;;;;;;;;;;5.99;74.90;99078.66;1765543;81;25942;-86
2020/12/21 14:32:47;;;;;;;;;;;;;;;5.97;74.84;99077.41;1773508;80;24560;-87
2020/12/21 14:35:22;;;;;;;;;;;;;;;5.99;74.79;99079.51;1775776;80;20341;-87
2020/12/21 14:38:11;;;;;;;;;;;;;;;5.95;74.75;99084.41;1773739;80;24870;-87
2020/12/21 14:40:58;;;;;;;;;;;;;;;5.98;74.69;99086.91;1774099;81;22142;-87
2020/12/21 14:43:46;;;;;;;;;;;;;;;5.97;74.69;99077.86;1775328;79;26105;-87
2020/12/21 14:46:32;;;;;;;;;;;;;;;5.88;74.62;99085.14;1775017;81;24885;-87